sensor_id;sensor_type;location;lat;lon;timestamp;P1;durP1;ratioP1;P2;durP2;ratioP2
11439;SDS011;5776;51.814;4.510;2023-10-19T00:01:21;7.87;;;5.67;;
11439;SDS011;5776;51.814;4.510;2023-10-19T00:03:52;10.67;;;5.40;;
11439;SDS011;5776;51.814;4.510;2023-10-19T00:06:22;5.67;;;4.37;;
11439;SDS011;5776;51.814;4.510;2023-10-19T00:08:50;8.30;;;5.10;;
11439;SDS011;5776;51.814;4.510;2023-10-19T00:11:21;4.67;;;3.57;;
11439;SDS011;5776;51.814;4.510;2023-10-19T00:13:48;7.40;;;5.20;;
11439;SDS011;5776;51.814;4.510;2023-10-19T00:16:19;8.47;;;5.37;;
11439;SDS011;5776;51.814;4.510;2023-10-19T00:18:51;6.90;;;4.83;;
11439;SDS011;5776;51.814;4.510;2023-10-19T00:21:19;8.50;;;5.00;;
11439;SDS011;5776;51.814;4.510;2023-10-19T00:23:46;4.93;;;3.77;;
11439;SDS011;5776;51.814;4.510;2023-10-19T00:26:13;6.40;;;4.23;;
11439;SDS011;5776;51.814;4.510;2023-10-19T00:28:47;6.73;;;4.93;;
11439;SDS011;5776;51.814;4.510;2023-10-19T00:31:25;5.23;;;3.70;;
11439;SDS011;5776;51.814;4.510;2023-10-19T00:33:54;6.57;;;4.73;;
11439;SDS011;5776;51.814;4.510;2023-10-19T00:36:21;9.13;;;4.67;;
11439;SDS011;5776;51.814;4.510;2023-10-19T00:38:48;6.63;;;4.53;;
11439;SDS011;5776;51.814;4.510;2023-10-19T00:41:14;6.37;;;4.40;;
11439;SDS011;5776;51.814;4.510;2023-10-19T00:43:49;7.70;;;4.60;;
11439;SDS011;5776;51.814;4.510;2023-10-19T00:46:18;5.53;;;4.20;;
11439;SDS011;5776;51.814;4.510;2023-10-19T00:48:47;4.23;;;3.53;;
11439;SDS011;5776;51.814;4.510;2023-10-19T00:51:16;4.57;;;3.50;;
11439;SDS011;5776;51.814;4.510;2023-10-19T00:54:09;5.53;;;3.57;;
11439;SDS011;5776;51.814;4.510;2023-10-19T00:56:41;5.93;;;2.57;;
11439;SDS011;5776;51.814;4.510;2023-10-19T00:59:14;3.80;;;1.87;;
11439;SDS011;5776;51.814;4.510;2023-10-19T01:01:56;5.23;;;1.87;;
11439;SDS011;5776;51.814;4.510;2023-10-19T01:04:42;3.07;;;1.43;;
11439;SDS011;5776;51.814;4.510;2023-10-19T01:07:19;1.50;;;1.30;;
11439;SDS011;5776;51.814;4.510;2023-10-19T01:09:49;2.50;;;1.63;;
11439;SDS011;5776;51.814;4.510;2023-10-19T01:12:19;1.70;;;1.33;;
11439;SDS011;5776;51.814;4.510;2023-10-19T01:17:41;2.03;;;1.30;;
11439;SDS011;5776;51.814;4.510;2023-10-19T01:20:10;1.57;;;1.30;;
11439;SDS011;5776;51.814;4.510;2023-10-19T01:22:47;6.77;;;1.00;;
11439;SDS011;5776;51.814;4.510;2023-10-19T01:25:20;1.43;;;1.00;;
11439;SDS011;5776;51.814;4.510;2023-10-19T01:28:02;3.37;;;1.33;;
11439;SDS011;5776;51.814;4.510;2023-10-19T01:30:34;3.00;;;1.07;;
11439;SDS011;5776;51.814;4.510;2023-10-19T01:33:02;4.67;;;2.67;;
11439;SDS011;5776;51.814;4.510;2023-10-19T01:35:30;2.47;;;0.73;;
11439;SDS011;5776;51.814;4.510;2023-10-19T01:38:14;0.67;;;0.60;;
11439;SDS011;5776;51.814;4.510;2023-10-19T01:40:41;2.47;;;0.70;;
11439;SDS011;5776;51.814;4.510;2023-10-19T01:43:14;1.43;;;0.70;;
11439;SDS011;5776;51.814;4.510;2023-10-19T01:45:47;0.77;;;0.67;;
11439;SDS011;5776;51.814;4.510;2023-10-19T01:48:15;3.80;;;0.80;;
11439;SDS011;5776;51.814;4.510;2023-10-19T01:50:41;1.77;;;0.90;;
11439;SDS011;5776;51.814;4.510;2023-10-19T01:53:07;1.97;;;0.60;;
11439;SDS011;5776;51.814;4.510;2023-10-19T01:55:45;7.03;;;0.80;;
11439;SDS011;5776;51.814;4.510;2023-10-19T01:58:13;3.60;;;0.80;;
11439;SDS011;5776;51.814;4.510;2023-10-19T02:00:40;2.70;;;0.70;;
11439;SDS011;5776;51.814;4.510;2023-10-19T02:03:08;1.83;;;0.70;;
11439;SDS011;5776;51.814;4.510;2023-10-19T02:05:35;1.33;;;0.60;;
11439;SDS011;5776;51.814;4.510;2023-10-19T02:08:11;1.27;;;0.70;;
11439;SDS011;5776;51.814;4.510;2023-10-19T02:10:39;3.80;;;0.70;;
11439;SDS011;5776;51.814;4.510;2023-10-19T02:13:10;1.27;;;0.50;;
11439;SDS011;5776;51.814;4.510;2023-10-19T02:15:42;2.10;;;0.70;;
11439;SDS011;5776;51.814;4.510;2023-10-19T02:18:08;3.50;;;0.80;;
11439;SDS011;5776;51.814;4.510;2023-10-19T02:20:36;0.60;;;0.50;;
11439;SDS011;5776;51.814;4.510;2023-10-19T02:23:07;2.33;;;0.90;;
11439;SDS011;5776;51.814;4.510;2023-10-19T02:25:34;1.97;;;0.57;;
11439;SDS011;5776;51.814;4.510;2023-10-19T02:28:06;2.03;;;0.60;;
11439;SDS011;5776;51.814;4.510;2023-10-19T02:30:33;1.30;;;0.60;;
11439;SDS011;5776;51.814;4.510;2023-10-19T02:33:01;2.17;;;0.80;;
11439;SDS011;5776;51.814;4.510;2023-10-19T02:35:31;1.10;;;0.87;;
11439;SDS011;5776;51.814;4.510;2023-10-19T02:37:57;1.47;;;0.87;;
11439;SDS011;5776;51.814;4.510;2023-10-19T02:40:24;2.00;;;0.90;;
11439;SDS011;5776;51.814;4.510;2023-10-19T02:42:50;4.47;;;1.03;;
11439;SDS011;5776;51.814;4.510;2023-10-19T02:45:19;3.90;;;0.83;;
11439;SDS011;5776;51.814;4.510;2023-10-19T02:47:45;1.87;;;0.77;;
11439;SDS011;5776;51.814;4.510;2023-10-19T02:50:12;2.30;;;0.90;;
11439;SDS011;5776;51.814;4.510;2023-10-19T02:52:42;9.73;;;0.80;;
11439;SDS011;5776;51.814;4.510;2023-10-19T02:55:09;4.63;;;0.80;;
11439;SDS011;5776;51.814;4.510;2023-10-19T02:57:38;1.47;;;0.50;;
11439;SDS011;5776;51.814;4.510;2023-10-19T03:00:05;3.97;;;0.70;;
11439;SDS011;5776;51.814;4.510;2023-10-19T03:02:39;5.23;;;0.70;;
11439;SDS011;5776;51.814;4.510;2023-10-19T03:05:06;4.23;;;0.80;;
11439;SDS011;5776;51.814;4.510;2023-10-19T03:07:43;2.53;;;0.60;;
11439;SDS011;5776;51.814;4.510;2023-10-19T03:10:09;2.63;;;0.77;;
11439;SDS011;5776;51.814;4.510;2023-10-19T03:12:49;1.90;;;0.63;;
11439;SDS011;5776;51.814;4.510;2023-10-19T03:15:16;4.43;;;0.83;;
11439;SDS011;5776;51.814;4.510;2023-10-19T03:17:47;1.73;;;0.67;;
11439;SDS011;5776;51.814;4.510;2023-10-19T03:20:14;2.37;;;1.00;;
11439;SDS011;5776;51.814;4.510;2023-10-19T03:22:42;2.27;;;0.80;;
11439;SDS011;5776;51.814;4.510;2023-10-19T03:25:09;2.03;;;0.60;;
11439;SDS011;5776;51.814;4.510;2023-10-19T03:27:54;5.00;;;0.60;;
11439;SDS011;5776;51.814;4.510;2023-10-19T03:30:20;1.30;;;0.70;;
11439;SDS011;5776;51.814;4.510;2023-10-19T03:32:50;6.20;;;0.70;;
11439;SDS011;5776;51.814;4.510;2023-10-19T03:35:17;3.77;;;0.87;;
11439;SDS011;5776;51.814;4.510;2023-10-19T03:37:44;6.70;;;0.80;;
11439;SDS011;5776;51.814;4.510;2023-10-19T03:40:14;1.90;;;0.67;;
11439;SDS011;5776;51.814;4.510;2023-10-19T03:42:45;1.53;;;0.60;;
11439;SDS011;5776;51.814;4.510;2023-10-19T03:45:13;0.90;;;0.70;;
11439;SDS011;5776;51.814;4.510;2023-10-19T03:47:40;1.10;;;0.70;;
11439;SDS011;5776;51.814;4.510;2023-10-19T03:50:09;2.40;;;0.70;;
11439;SDS011;5776;51.814;4.510;2023-10-19T03:52:43;2.97;;;0.80;;
11439;SDS011;5776;51.814;4.510;2023-10-19T03:55:13;1.90;;;0.73;;
11439;SDS011;5776;51.814;4.510;2023-10-19T03:57:45;4.47;;;0.90;;
11439;SDS011;5776;51.814;4.510;2023-10-19T04:00:19;6.67;;;0.90;;
11439;SDS011;5776;51.814;4.510;2023-10-19T04:02:49;4.27;;;0.90;;
11439;SDS011;5776;51.814;4.510;2023-10-19T04:05:21;1.43;;;0.83;;
11439;SDS011;5776;51.814;4.510;2023-10-19T04:07:51;5.53;;;1.10;;
11439;SDS011;5776;51.814;4.510;2023-10-19T04:10:24;3.23;;;0.93;;
11439;SDS011;5776;51.814;4.510;2023-10-19T04:13:19;1.27;;;0.80;;
11439;SDS011;5776;51.814;4.510;2023-10-19T04:15:45;9.53;;;1.40;;
11439;SDS011;5776;51.814;4.510;2023-10-19T04:18:11;3.53;;;1.23;;
11439;SDS011;5776;51.814;4.510;2023-10-19T04:20:38;3.47;;;1.07;;
11439;SDS011;5776;51.814;4.510;2023-10-19T04:23:34;3.83;;;0.90;;
11439;SDS011;5776;51.814;4.510;2023-10-19T04:26:00;8.83;;;1.30;;
11439;SDS011;5776;51.814;4.510;2023-10-19T04:28:41;2.33;;;1.00;;
11439;SDS011;5776;51.814;4.510;2023-10-19T04:31:11;4.20;;;0.90;;
11439;SDS011;5776;51.814;4.510;2023-10-19T04:33:40;2.77;;;1.07;;
11439;SDS011;5776;51.814;4.510;2023-10-19T04:36:08;2.23;;;1.10;;
11439;SDS011;5776;51.814;4.510;2023-10-19T04:38:37;5.93;;;1.10;;
11439;SDS011;5776;51.814;4.510;2023-10-19T04:41:07;3.17;;;1.40;;
11439;SDS011;5776;51.814;4.510;2023-10-19T04:43:38;6.17;;;1.20;;
11439;SDS011;5776;51.814;4.510;2023-10-19T04:46:05;1.97;;;1.20;;
11439;SDS011;5776;51.814;4.510;2023-10-19T04:48:35;5.10;;;1.17;;
11439;SDS011;5776;51.814;4.510;2023-10-19T04:51:02;4.00;;;1.00;;
11439;SDS011;5776;51.814;4.510;2023-10-19T04:53:30;2.33;;;1.03;;
11439;SDS011;5776;51.814;4.510;2023-10-19T04:55:59;2.77;;;0.93;;
11439;SDS011;5776;51.814;4.510;2023-10-19T04:58:29;4.93;;;1.07;;
11439;SDS011;5776;51.814;4.510;2023-10-19T05:00:55;2.93;;;1.10;;
11439;SDS011;5776;51.814;4.510;2023-10-19T05:03:26;8.43;;;1.23;;
11439;SDS011;5776;51.814;4.510;2023-10-19T05:05:54;2.63;;;1.30;;
11439;SDS011;5776;51.814;4.510;2023-10-19T05:08:25;7.30;;;1.40;;
11439;SDS011;5776;51.814;4.510;2023-10-19T05:10:52;10.07;;;1.40;;
11439;SDS011;5776;51.814;4.510;2023-10-19T05:13:20;8.67;;;1.30;;
11439;SDS011;5776;51.814;4.510;2023-10-19T05:15:48;2.90;;;1.20;;
11439;SDS011;5776;51.814;4.510;2023-10-19T05:18:15;5.10;;;1.50;;
11439;SDS011;5776;51.814;4.510;2023-10-19T05:20:41;3.43;;;1.27;;
11439;SDS011;5776;51.814;4.510;2023-10-19T05:23:07;2.73;;;1.30;;
11439;SDS011;5776;51.814;4.510;2023-10-19T05:25:33;4.47;;;1.30;;
11439;SDS011;5776;51.814;4.510;2023-10-19T05:28:05;9.37;;;1.80;;
11439;SDS011;5776;51.814;4.510;2023-10-19T05:30:33;5.13;;;1.40;;
11439;SDS011;5776;51.814;4.510;2023-10-19T05:33:01;4.10;;;1.30;;
11439;SDS011;5776;51.814;4.510;2023-10-19T05:35:28;6.47;;;1.53;;
11439;SDS011;5776;51.814;4.510;2023-10-19T05:37:56;4.97;;;1.17;;
11439;SDS011;5776;51.814;4.510;2023-10-19T05:40:23;11.47;;;1.50;;
11439;SDS011;5776;51.814;4.510;2023-10-19T05:42:54;1.60;;;0.90;;
11439;SDS011;5776;51.814;4.510;2023-10-19T05:45:20;3.53;;;1.27;;
11439;SDS011;5776;51.814;4.510;2023-10-19T05:47:46;5.00;;;1.20;;
11439;SDS011;5776;51.814;4.510;2023-10-19T05:50:13;4.27;;;1.67;;
11439;SDS011;5776;51.814;4.510;2023-10-19T05:52:43;6.03;;;1.10;;
11439;SDS011;5776;51.814;4.510;2023-10-19T05:55:10;9.00;;;1.33;;
11439;SDS011;5776;51.814;4.510;2023-10-19T05:57:39;6.33;;;1.10;;
11439;SDS011;5776;51.814;4.510;2023-10-19T06:00:09;3.70;;;0.93;;
11439;SDS011;5776;51.814;4.510;2023-10-19T06:02:42;2.57;;;0.80;;
11439;SDS011;5776;51.814;4.510;2023-10-19T06:05:10;5.40;;;1.60;;
11439;SDS011;5776;51.814;4.510;2023-10-19T06:07:36;5.10;;;1.30;;
11439;SDS011;5776;51.814;4.510;2023-10-19T06:10:04;1.80;;;0.80;;
11439;SDS011;5776;51.814;4.510;2023-10-19T06:12:31;2.40;;;0.77;;
11439;SDS011;5776;51.814;4.510;2023-10-19T06:14:58;5.03;;;1.13;;
11439;SDS011;5776;51.814;4.510;2023-10-19T06:17:28;3.43;;;0.90;;
11439;SDS011;5776;51.814;4.510;2023-10-19T06:19:55;2.33;;;1.00;;
11439;SDS011;5776;51.814;4.510;2023-10-19T06:22:21;6.17;;;1.00;;
11439;SDS011;5776;51.814;4.510;2023-10-19T06:24:47;3.20;;;0.70;;
11439;SDS011;5776;51.814;4.510;2023-10-19T06:27:14;3.07;;;0.97;;
11439;SDS011;5776;51.814;4.510;2023-10-19T06:29:40;4.50;;;0.90;;
11439;SDS011;5776;51.814;4.510;2023-10-19T06:32:07;3.30;;;0.80;;
11439;SDS011;5776;51.814;4.510;2023-10-19T06:34:33;2.20;;;0.83;;
11439;SDS011;5776;51.814;4.510;2023-10-19T06:37:01;5.80;;;1.20;;
11439;SDS011;5776;51.814;4.510;2023-10-19T06:39:29;4.83;;;1.23;;
11439;SDS011;5776;51.814;4.510;2023-10-19T06:41:56;5.73;;;1.40;;
11439;SDS011;5776;51.814;4.510;2023-10-19T06:44:22;2.87;;;0.97;;
11439;SDS011;5776;51.814;4.510;2023-10-19T06:46:50;3.20;;;0.70;;
11439;SDS011;5776;51.814;4.510;2023-10-19T06:49:16;7.20;;;1.07;;
11439;SDS011;5776;51.814;4.510;2023-10-19T06:51:44;1.30;;;0.90;;
11439;SDS011;5776;51.814;4.510;2023-10-19T06:54:10;5.30;;;0.90;;
11439;SDS011;5776;51.814;4.510;2023-10-19T06:56:39;2.37;;;0.97;;
11439;SDS011;5776;51.814;4.510;2023-10-19T06:59:05;4.37;;;0.90;;
11439;SDS011;5776;51.814;4.510;2023-10-19T07:01:30;3.93;;;1.20;;
11439;SDS011;5776;51.814;4.510;2023-10-19T07:03:57;3.63;;;1.00;;
11439;SDS011;5776;51.814;4.510;2023-10-19T07:06:25;5.37;;;1.57;;
11439;SDS011;5776;51.814;4.510;2023-10-19T07:08:52;2.97;;;0.80;;
11439;SDS011;5776;51.814;4.510;2023-10-19T07:11:17;5.33;;;1.30;;
11439;SDS011;5776;51.814;4.510;2023-10-19T07:13:43;1.80;;;0.77;;
11439;SDS011;5776;51.814;4.510;2023-10-19T07:16:13;3.93;;;1.33;;
11439;SDS011;5776;51.814;4.510;2023-10-19T07:18:39;2.53;;;0.97;;
11439;SDS011;5776;51.814;4.510;2023-10-19T07:21:05;3.67;;;0.80;;
11439;SDS011;5776;51.814;4.510;2023-10-19T07:23:34;4.70;;;1.00;;
11439;SDS011;5776;51.814;4.510;2023-10-19T07:28:38;4.63;;;0.77;;
11439;SDS011;5776;51.814;4.510;2023-10-19T07:31:05;8.17;;;1.10;;
11439;SDS011;5776;51.814;4.510;2023-10-19T07:33:39;6.67;;;1.20;;
11439;SDS011;5776;51.814;4.510;2023-10-19T07:36:14;2.67;;;0.90;;
11439;SDS011;5776;51.814;4.510;2023-10-19T07:38:40;1.50;;;0.80;;
11439;SDS011;5776;51.814;4.510;2023-10-19T07:41:08;3.97;;;1.10;;
11439;SDS011;5776;51.814;4.510;2023-10-19T07:43:36;6.30;;;0.90;;
11439;SDS011;5776;51.814;4.510;2023-10-19T07:46:02;3.77;;;1.23;;
11439;SDS011;5776;51.814;4.510;2023-10-19T07:48:30;3.57;;;1.03;;
11439;SDS011;5776;51.814;4.510;2023-10-19T07:50:56;3.93;;;0.77;;
11439;SDS011;5776;51.814;4.510;2023-10-19T07:53:22;4.40;;;1.13;;
11439;SDS011;5776;51.814;4.510;2023-10-19T07:55:51;3.07;;;1.30;;
11439;SDS011;5776;51.814;4.510;2023-10-19T07:58:17;4.07;;;1.20;;
11439;SDS011;5776;51.814;4.510;2023-10-19T08:00:43;5.97;;;1.40;;
11439;SDS011;5776;51.814;4.510;2023-10-19T08:03:12;3.97;;;1.20;;
11439;SDS011;5776;51.814;4.510;2023-10-19T08:05:41;3.03;;;1.30;;
11439;SDS011;5776;51.814;4.510;2023-10-19T08:08:09;4.00;;;1.30;;
11439;SDS011;5776;51.814;4.510;2023-10-19T08:10:35;4.03;;;1.23;;
11439;SDS011;5776;51.814;4.510;2023-10-19T08:13:02;3.37;;;1.30;;
11439;SDS011;5776;51.814;4.510;2023-10-19T08:15:28;5.53;;;0.97;;
11439;SDS011;5776;51.814;4.510;2023-10-19T08:17:57;6.90;;;1.53;;
11439;SDS011;5776;51.814;4.510;2023-10-19T08:20:23;5.97;;;1.20;;
11439;SDS011;5776;51.814;4.510;2023-10-19T08:22:56;4.60;;;1.43;;
11439;SDS011;5776;51.814;4.510;2023-10-19T08:25:23;8.63;;;1.30;;
11439;SDS011;5776;51.814;4.510;2023-10-19T08:27:50;10.97;;;1.33;;
11439;SDS011;5776;51.814;4.510;2023-10-19T08:30:17;2.83;;;1.30;;
11439;SDS011;5776;51.814;4.510;2023-10-19T08:32:44;8.53;;;1.53;;
11439;SDS011;5776;51.814;4.510;2023-10-19T08:35:14;3.47;;;1.47;;
11439;SDS011;5776;51.814;4.510;2023-10-19T08:37:50;8.03;;;1.67;;
11439;SDS011;5776;51.814;4.510;2023-10-19T08:40:18;10.60;;;1.30;;
11439;SDS011;5776;51.814;4.510;2023-10-19T08:42:45;3.67;;;1.30;;
11439;SDS011;5776;51.814;4.510;2023-10-19T08:45:12;8.80;;;1.97;;
11439;SDS011;5776;51.814;4.510;2023-10-19T08:47:49;6.37;;;1.63;;
11439;SDS011;5776;51.814;4.510;2023-10-19T08:50:26;7.03;;;1.57;;
11439;SDS011;5776;51.814;4.510;2023-10-19T08:52:55;5.70;;;1.60;;
11439;SDS011;5776;51.814;4.510;2023-10-19T08:55:22;3.83;;;1.20;;
11439;SDS011;5776;51.814;4.510;2023-10-19T08:57:48;6.90;;;1.70;;
11439;SDS011;5776;51.814;4.510;2023-10-19T09:00:15;4.63;;;1.47;;
11439;SDS011;5776;51.814;4.510;2023-10-19T09:02:47;7.13;;;2.23;;
11439;SDS011;5776;51.814;4.510;2023-10-19T09:05:14;3.97;;;1.63;;
11439;SDS011;5776;51.814;4.510;2023-10-19T09:07:49;9.57;;;1.57;;
11439;SDS011;5776;51.814;4.510;2023-10-19T09:10:24;10.03;;;1.83;;
11439;SDS011;5776;51.814;4.510;2023-10-19T09:15:36;8.43;;;1.60;;
11439;SDS011;5776;51.814;4.510;2023-10-19T09:20:45;7.27;;;1.70;;
11439;SDS011;5776;51.814;4.510;2023-10-19T09:23:24;5.17;;;1.43;;
11439;SDS011;5776;51.814;4.510;2023-10-19T09:25:56;9.20;;;1.57;;
11439;SDS011;5776;51.814;4.510;2023-10-19T09:28:22;9.70;;;1.83;;
11439;SDS011;5776;51.814;4.510;2023-10-19T09:30:51;12.77;;;1.97;;
11439;SDS011;5776;51.814;4.510;2023-10-19T09:33:18;8.70;;;1.47;;
11439;SDS011;5776;51.814;4.510;2023-10-19T09:35:47;8.10;;;1.60;;
11439;SDS011;5776;51.814;4.510;2023-10-19T09:38:15;3.83;;;1.47;;
11439;SDS011;5776;51.814;4.510;2023-10-19T09:40:41;10.37;;;1.70;;
11439;SDS011;5776;51.814;4.510;2023-10-19T09:43:10;9.30;;;1.60;;
11439;SDS011;5776;51.814;4.510;2023-10-19T09:45:41;12.37;;;2.53;;
11439;SDS011;5776;51.814;4.510;2023-10-19T09:48:15;9.57;;;1.90;;
11439;SDS011;5776;51.814;4.510;2023-10-19T09:50:44;8.80;;;1.90;;
11439;SDS011;5776;51.814;4.510;2023-10-19T09:53:16;6.13;;;1.50;;
11439;SDS011;5776;51.814;4.510;2023-10-19T09:55:44;4.77;;;1.70;;
11439;SDS011;5776;51.814;4.510;2023-10-19T09:58:15;7.17;;;1.10;;
11439;SDS011;5776;51.814;4.510;2023-10-19T10:00:45;6.77;;;1.40;;
11439;SDS011;5776;51.814;4.510;2023-10-19T10:06:12;6.43;;;1.33;;
11439;SDS011;5776;51.814;4.510;2023-10-19T10:08:42;4.90;;;1.37;;
11439;SDS011;5776;51.814;4.510;2023-10-19T10:11:14;6.03;;;1.30;;
11439;SDS011;5776;51.814;4.510;2023-10-19T10:13:42;4.63;;;1.77;;
11439;SDS011;5776;51.814;4.510;2023-10-19T10:16:11;3.17;;;1.40;;
11439;SDS011;5776;51.814;4.510;2023-10-19T10:18:39;11.00;;;1.90;;
11439;SDS011;5776;51.814;4.510;2023-10-19T10:21:12;4.73;;;1.30;;
11439;SDS011;5776;51.814;4.510;2023-10-19T10:23:44;2.03;;;0.80;;
11439;SDS011;5776;51.814;4.510;2023-10-19T10:26:14;8.07;;;1.63;;
11439;SDS011;5776;51.814;4.510;2023-10-19T10:28:45;6.57;;;1.50;;
11439;SDS011;5776;51.814;4.510;2023-10-19T10:31:22;10.97;;;1.43;;
11439;SDS011;5776;51.814;4.510;2023-10-19T10:33:50;5.50;;;1.37;;
11439;SDS011;5776;51.814;4.510;2023-10-19T10:36:20;6.93;;;1.33;;
11439;SDS011;5776;51.814;4.510;2023-10-19T10:38:49;10.77;;;1.40;;
11439;SDS011;5776;51.814;4.510;2023-10-19T10:41:19;6.97;;;1.03;;
11439;SDS011;5776;51.814;4.510;2023-10-19T10:43:53;6.10;;;1.03;;
11439;SDS011;5776;51.814;4.510;2023-10-19T10:46:24;8.80;;;1.60;;
11439;SDS011;5776;51.814;4.510;2023-10-19T10:48:52;4.77;;;1.60;;
11439;SDS011;5776;51.814;4.510;2023-10-19T10:51:19;8.33;;;1.43;;
11439;SDS011;5776;51.814;4.510;2023-10-19T10:53:52;7.43;;;1.17;;
11439;SDS011;5776;51.814;4.510;2023-10-19T10:56:20;4.37;;;0.97;;
11439;SDS011;5776;51.814;4.510;2023-10-19T10:58:50;9.60;;;1.43;;
11439;SDS011;5776;51.814;4.510;2023-10-19T11:01:27;7.57;;;1.23;;
11439;SDS011;5776;51.814;4.510;2023-10-19T11:04:07;4.57;;;1.27;;
11439;SDS011;5776;51.814;4.510;2023-10-19T11:06:45;10.30;;;1.30;;
11439;SDS011;5776;51.814;4.510;2023-10-19T11:09:20;6.50;;;1.40;;
11439;SDS011;5776;51.814;4.510;2023-10-19T11:11:50;9.00;;;1.37;;
11439;SDS011;5776;51.814;4.510;2023-10-19T11:14:17;8.03;;;1.10;;
11439;SDS011;5776;51.814;4.510;2023-10-19T11:16:43;8.13;;;1.40;;
11439;SDS011;5776;51.814;4.510;2023-10-19T11:19:09;6.03;;;1.20;;
11439;SDS011;5776;51.814;4.510;2023-10-19T11:21:35;6.30;;;1.23;;
11439;SDS011;5776;51.814;4.510;2023-10-19T11:24:02;10.43;;;1.27;;
11439;SDS011;5776;51.814;4.510;2023-10-19T11:26:28;6.87;;;1.50;;
11439;SDS011;5776;51.814;4.510;2023-10-19T11:28:58;8.17;;;1.83;;
11439;SDS011;5776;51.814;4.510;2023-10-19T11:31:26;7.90;;;0.97;;
11439;SDS011;5776;51.814;4.510;2023-10-19T11:33:53;8.50;;;1.20;;
11439;SDS011;5776;51.814;4.510;2023-10-19T11:36:23;6.83;;;1.47;;
11439;SDS011;5776;51.814;4.510;2023-10-19T11:38:50;6.40;;;1.37;;
11439;SDS011;5776;51.814;4.510;2023-10-19T11:41:18;8.90;;;1.23;;
11439;SDS011;5776;51.814;4.510;2023-10-19T11:43:46;8.43;;;1.67;;
11439;SDS011;5776;51.814;4.510;2023-10-19T11:46:18;5.90;;;0.97;;
11439;SDS011;5776;51.814;4.510;2023-10-19T11:48:47;9.77;;;1.30;;
11439;SDS011;5776;51.814;4.510;2023-10-19T11:51:14;6.03;;;1.60;;
11439;SDS011;5776;51.814;4.510;2023-10-19T11:53:40;8.30;;;1.10;;
11439;SDS011;5776;51.814;4.510;2023-10-19T11:56:10;10.07;;;1.05;;
11439;SDS011;5776;51.814;4.510;2023-10-19T11:58:41;11.40;;;1.40;;
11439;SDS011;5776;51.814;4.510;2023-10-19T12:01:08;6.43;;;1.50;;
11439;SDS011;5776;51.814;4.510;2023-10-19T12:03:36;4.40;;;1.00;;
11439;SDS011;5776;51.814;4.510;2023-10-19T12:06:04;5.23;;;1.40;;
11439;SDS011;5776;51.814;4.510;2023-10-19T12:08:33;7.70;;;1.50;;
11439;SDS011;5776;51.814;4.510;2023-10-19T12:11:00;8.37;;;2.00;;
11439;SDS011;5776;51.814;4.510;2023-10-19T12:13:40;9.37;;;1.47;;
11439;SDS011;5776;51.814;4.510;2023-10-19T12:16:06;5.70;;;1.00;;
11439;SDS011;5776;51.814;4.510;2023-10-19T12:18:32;5.80;;;1.20;;
11439;SDS011;5776;51.814;4.510;2023-10-19T12:20:57;8.70;;;1.23;;
11439;SDS011;5776;51.814;4.510;2023-10-19T12:23:25;8.30;;;1.37;;
11439;SDS011;5776;51.814;4.510;2023-10-19T12:25:51;11.37;;;1.50;;
11439;SDS011;5776;51.814;4.510;2023-10-19T12:28:16;5.57;;;1.57;;
11439;SDS011;5776;51.814;4.510;2023-10-19T12:30:42;8.73;;;1.67;;
11439;SDS011;5776;51.814;4.510;2023-10-19T12:33:08;4.43;;;1.37;;
11439;SDS011;5776;51.814;4.510;2023-10-19T12:35:42;7.17;;;1.57;;
11439;SDS011;5776;51.814;4.510;2023-10-19T12:38:16;16.13;;;1.70;;
11439;SDS011;5776;51.814;4.510;2023-10-19T12:40:42;6.50;;;1.53;;
11439;SDS011;5776;51.814;4.510;2023-10-19T12:43:09;4.23;;;1.07;;
11439;SDS011;5776;51.814;4.510;2023-10-19T12:45:35;6.57;;;1.70;;
11439;SDS011;5776;51.814;4.510;2023-10-19T12:48:05;7.10;;;1.30;;
11439;SDS011;5776;51.814;4.510;2023-10-19T12:50:31;8.47;;;2.00;;
11439;SDS011;5776;51.814;4.510;2023-10-19T12:52:57;9.37;;;1.53;;
11439;SDS011;5776;51.814;4.510;2023-10-19T12:55:22;6.80;;;2.00;;
11439;SDS011;5776;51.814;4.510;2023-10-19T12:57:52;11.40;;;1.70;;
11439;SDS011;5776;51.814;4.510;2023-10-19T13:00:18;6.20;;;1.50;;
11439;SDS011;5776;51.814;4.510;2023-10-19T13:03:01;5.33;;;1.30;;
11439;SDS011;5776;51.814;4.510;2023-10-19T13:05:36;8.23;;;1.77;;
11439;SDS011;5776;51.814;4.510;2023-10-19T13:08:05;5.60;;;1.50;;
11439;SDS011;5776;51.814;4.510;2023-10-19T13:10:32;4.53;;;1.13;;
11439;SDS011;5776;51.814;4.510;2023-10-19T13:13:02;8.43;;;1.40;;
11439;SDS011;5776;51.814;4.510;2023-10-19T13:15:32;11.27;;;2.23;;
11439;SDS011;5776;51.814;4.510;2023-10-19T13:18:00;5.70;;;1.57;;
11439;SDS011;5776;51.814;4.510;2023-10-19T13:20:32;5.93;;;1.53;;
11439;SDS011;5776;51.814;4.510;2023-10-19T13:23:07;5.27;;;1.47;;
11439;SDS011;5776;51.814;4.510;2023-10-19T13:25:46;4.73;;;1.00;;
11439;SDS011;5776;51.814;4.510;2023-10-19T13:28:15;8.80;;;1.70;;
11439;SDS011;5776;51.814;4.510;2023-10-19T13:30:43;7.40;;;1.40;;
11439;SDS011;5776;51.814;4.510;2023-10-19T13:33:13;7.67;;;1.63;;
11439;SDS011;5776;51.814;4.510;2023-10-19T13:35:40;3.83;;;1.43;;
11439;SDS011;5776;51.814;4.510;2023-10-19T13:38:09;12.37;;;1.60;;
11439;SDS011;5776;51.814;4.510;2023-10-19T13:40:38;4.20;;;1.40;;
11439;SDS011;5776;51.814;4.510;2023-10-19T13:43:05;5.23;;;1.60;;
11439;SDS011;5776;51.814;4.510;2023-10-19T13:45:32;8.20;;;1.57;;
11439;SDS011;5776;51.814;4.510;2023-10-19T13:48:08;8.70;;;1.70;;
11439;SDS011;5776;51.814;4.510;2023-10-19T13:50:40;5.00;;;1.30;;
11439;SDS011;5776;51.814;4.510;2023-10-19T13:53:11;3.17;;;1.20;;
11439;SDS011;5776;51.814;4.510;2023-10-19T13:55:36;10.23;;;1.70;;
11439;SDS011;5776;51.814;4.510;2023-10-19T13:58:02;5.63;;;1.40;;
11439;SDS011;5776;51.814;4.510;2023-10-19T14:00:27;8.60;;;1.23;;
11439;SDS011;5776;51.814;4.510;2023-10-19T14:03:00;10.77;;;1.30;;
11439;SDS011;5776;51.814;4.510;2023-10-19T14:05:26;4.90;;;1.27;;
11439;SDS011;5776;51.814;4.510;2023-10-19T14:07:55;4.40;;;1.43;;
11439;SDS011;5776;51.814;4.510;2023-10-19T14:10:21;6.10;;;1.50;;
11439;SDS011;5776;51.814;4.510;2023-10-19T14:12:47;7.20;;;1.23;;
11439;SDS011;5776;51.814;4.510;2023-10-19T14:15:17;2.97;;;1.37;;
11439;SDS011;5776;51.814;4.510;2023-10-19T14:17:44;5.50;;;1.63;;
11439;SDS011;5776;51.814;4.510;2023-10-19T14:20:11;6.10;;;1.33;;
11439;SDS011;5776;51.814;4.510;2023-10-19T14:22:38;6.53;;;1.03;;
11439;SDS011;5776;51.814;4.510;2023-10-19T14:25:11;3.97;;;1.33;;
11439;SDS011;5776;51.814;4.510;2023-10-19T14:27:42;10.60;;;1.40;;
11439;SDS011;5776;51.814;4.510;2023-10-19T14:30:09;6.47;;;1.50;;
11439;SDS011;5776;51.814;4.510;2023-10-19T14:32:40;6.33;;;1.20;;
11439;SDS011;5776;51.814;4.510;2023-10-19T14:35:10;5.30;;;1.40;;
11439;SDS011;5776;51.814;4.510;2023-10-19T14:37:40;8.30;;;2.03;;
11439;SDS011;5776;51.814;4.510;2023-10-19T14:42:39;5.93;;;1.57;;
11439;SDS011;5776;51.814;4.510;2023-10-19T14:47:41;5.73;;;1.50;;
11439;SDS011;5776;51.814;4.510;2023-10-19T14:50:10;5.23;;;1.00;;
11439;SDS011;5776;51.814;4.510;2023-10-19T14:52:41;3.67;;;1.10;;
11439;SDS011;5776;51.814;4.510;2023-10-19T14:55:08;4.83;;;1.30;;
11439;SDS011;5776;51.814;4.510;2023-10-19T14:57:39;8.50;;;1.30;;
11439;SDS011;5776;51.814;4.510;2023-10-19T15:00:06;3.53;;;1.30;;
11439;SDS011;5776;51.814;4.510;2023-10-19T15:02:41;7.87;;;1.60;;
11439;SDS011;5776;51.814;4.510;2023-10-19T15:05:09;8.40;;;1.57;;
11439;SDS011;5776;51.814;4.510;2023-10-19T15:07:38;7.37;;;1.43;;
11439;SDS011;5776;51.814;4.510;2023-10-19T15:10:05;6.53;;;1.47;;
11439;SDS011;5776;51.814;4.510;2023-10-19T15:12:34;7.23;;;1.57;;
11439;SDS011;5776;51.814;4.510;2023-10-19T15:15:00;5.27;;;1.10;;
11439;SDS011;5776;51.814;4.510;2023-10-19T15:17:26;4.40;;;1.37;;
11439;SDS011;5776;51.814;4.510;2023-10-19T15:19:52;3.17;;;1.00;;
11439;SDS011;5776;51.814;4.510;2023-10-19T15:22:18;3.73;;;1.20;;
11439;SDS011;5776;51.814;4.510;2023-10-19T15:24:43;3.97;;;1.13;;
11439;SDS011;5776;51.814;4.510;2023-10-19T15:27:09;5.72;;;1.65;;
11439;SDS011;5776;51.814;4.510;2023-10-19T15:29:34;3.97;;;1.50;;
11439;SDS011;5776;51.814;4.510;2023-10-19T15:31:59;4.40;;;1.40;;